Time;durP1;ratioP1;P1;durP2;ratioP2;P2;SDS_P1;SDS_P2;PMS_P1;PMS_P2;Temp;Humidity;BMP_temperature;BMP_pressure;BME280_temperature;BME280_humidity;BME280_pressure;Samples;Min_cycle;Max_cycle;Signal;HPM_P1;HPM_P2
2021/04/08 00:02:19;;;;;;;4.95;4.65;;;2.10;73.80;;;;;;5068568;28;20218;-66
2021/04/08 00:04:47;;;;;;;5.10;4.70;;;2.10;73.80;;;;;;5069082;28;20561;-66
2021/04/08 00:07:13;;;;;;;5.00;4.70;;;2.00;73.80;;;;;;5090588;22;20855;-75
2021/04/08 00:09:40;;;;;;;4.82;4.53;;;2.00;73.70;;;;;;5068747;28;20673;-76
2021/04/08 00:12:08;;;;;;;4.53;4.22;;;2.00;73.70;;;;;;5070886;28;20229;-76
2021/04/08 00:14:34;;;;;;;4.53;4.20;;;2.00;74.00;;;;;;5068886;28;20202;-76
2021/04/08 00:17:01;;;;;;;4.32;4.03;;;2.00;74.30;;;;;;5064057;28;20226;-76
2021/04/08 00:19:28;;;;;;;4.20;3.90;;;1.90;74.40;;;;;;5052609;28;20241;-76
2021/04/08 00:21:55;;;;;;;4.45;4.07;;;2.00;74.60;;;;;;5053469;28;20260;-76
2021/04/08 00:24:22;;;;;;;4.70;4.40;;;1.90;74.60;;;;;;5051026;28;20206;-76
2021/04/08 00:26:49;;;;;;;4.68;4.38;;;1.90;74.60;;;;;;5053916;28;20292;-76
2021/04/08 00:29:15;;;;;;;5.38;4.85;;;1.90;74.70;;;;;;5051270;28;20199;-76
2021/04/08 00:31:42;;;;;;;5.93;5.07;;;1.90;75.10;;;;;;5053392;28;20218;-75
2021/04/08 00:34:08;;;;;;;6.20;5.70;;;1.80;75.10;;;;;;5049820;28;20657;-76
2021/04/08 00:36:35;;;;;;;6.38;5.95;;;1.80;75.80;;;;;;5053887;28;20635;-76
2021/04/08 00:39:03;;;;;;;6.85;6.35;;;1.70;76.20;;;;;;5052439;28;20241;-76
2021/04/08 00:41:30;;;;;;;6.72;6.22;;;1.60;76.50;;;;;;5051819;28;20271;-76
2021/04/08 00:43:58;;;;;;;7.15;6.65;;;1.60;76.40;;;;;;5055626;28;20199;-76
2021/04/08 00:46:24;;;;;;;6.88;6.40;;;1.50;76.30;;;;;;5052260;28;20227;-76
2021/04/08 00:48:51;;;;;;;7.05;6.43;;;1.50;76.10;;;;;;5054465;28;20195;-75
2021/04/08 00:51:18;;;;;;;6.38;5.78;;;1.60;76.20;;;;;;5047855;28;20219;-76
2021/04/08 00:53:45;;;;;;;6.18;5.70;;;1.60;76.40;;;;;;5054249;28;20243;-76
2021/04/08 00:56:13;;;;;;;6.15;5.75;;;1.60;76.40;;;;;;5047311;28;20228;-76
2021/04/08 00:58:40;;;;;;;6.03;5.63;;;1.70;76.50;;;;;;5053661;28;20200;-76
2021/04/08 01:01:07;;;;;;;6.18;5.68;;;1.60;76.50;;;;;;5047909;28;20219;-76
2021/04/08 01:03:36;;;;;;;8.10;6.03;;;1.60;76.40;;;;;;5049452;28;20190;-76
2021/04/08 01:06:03;;;;;;;6.50;6.07;;;1.70;76.20;;;;;;5049395;28;20230;-75
2021/04/08 01:08:31;;;;;;;6.80;6.22;;;1.60;76.10;;;;;;5055589;28;20195;-76
2021/04/08 01:10:57;;;;;;;6.78;6.38;;;1.60;76.30;;;;;;5050136;28;20234;-76
2021/04/08 01:13:26;;;;;;;7.47;6.97;;;1.60;76.50;;;;;;5057123;28;20212;-76
2021/04/08 01:15:52;;;;;;;7.03;6.53;;;1.60;76.40;;;;;;5050161;28;20223;-76
2021/04/08 01:18:33;;;;;;;6.82;6.10;;;1.60;76.10;;;;;;5048424;28;20244;-76
2021/04/08 01:21:07;;;;;;;6.18;5.78;;;1.60;76.20;;;;;;5047454;28;20240;-75
2021/04/08 01:24:02;;;;;;;6.38;5.90;;;1.60;76.60;;;;;;5056253;28;20228;-74
2021/04/08 01:27:09;;;;;;;5.88;5.45;;;1.60;76.70;;;;;;5056474;28;20233;-75
2021/04/08 01:29:52;;;;;;;5.63;5.13;;;1.50;76.60;;;;;;5059114;28;20201;-75
2021/04/08 01:32:20;;;;;;;6.18;5.68;;;1.50;76.90;;;;;;5050431;28;20223;-76
2021/04/08 01:34:51;;;;;;;5.28;4.88;;;1.50;77.30;;;;;;5044669;28;20199;-76
2021/04/08 01:37:38;;;;;;;5.53;5.13;;;1.50;77.80;;;;;;5058641;28;20229;-76
2021/04/08 01:40:07;;;;;;;6.22;5.72;;;1.40;78.00;;;;;;5049643;28;20226;-76
2021/04/08 01:42:34;;;;;;;6.47;5.88;;;1.40;78.10;;;;;;5030855;28;20238;-76
2021/04/08 01:45:02;;;;;;;6.20;5.80;;;1.40;78.30;;;;;;5040205;28;20260;-75
2021/04/08 01:47:31;;;;;;;5.63;5.22;;;1.40;78.30;;;;;;5051280;28;20230;-76
2021/04/08 01:49:59;;;;;;;6.13;5.65;;;1.30;78.50;;;;;;5057812;28;20202;-76
2021/04/08 01:52:28;;;;;;;6.00;5.60;;;1.30;78.50;;;;;;5046147;28;20226;-75
2021/04/08 01:54:59;;;;;;;5.88;5.28;;;1.30;78.80;;;;;;5038185;28;20565;-76
2021/04/08 01:57:28;;;;;;;6.85;6.35;;;1.30;78.70;;;;;;5040695;28;20705;-74
2021/04/08 01:59:57;;;;;;;5.95;5.55;;;1.30;78.40;;;;;;5038194;28;20242;-76
2021/04/08 02:02:25;;;;;;;5.68;5.30;;;1.30;78.50;;;;;;5024223;28;20627;-76
2021/04/08 02:04:54;;;;;;;12.07;4.95;;;1.30;78.90;;;;;;5022091;28;20204;-76
2021/04/08 02:07:23;;;;;;;5.40;4.90;;;1.20;80.00;;;;;;5032213;28;20741;-76
2021/04/08 02:09:52;;;;;;;5.07;4.60;;;1.10;80.60;;;;;;5030722;28;20563;-76
2021/04/08 02:12:20;;;;;;;5.72;5.22;;;1.00;80.30;;;;;;5032714;28;20771;-76
2021/04/08 02:14:50;;;;;;;5.53;5.13;;;1.00;80.30;;;;;;5029585;28;20195;-76
2021/04/08 02:17:19;;;;;;;5.95;5.50;;;1.00;80.00;;;;;;5029860;28;20224;-75
2021/04/08 02:19:47;;;;;;;5.65;5.25;;;1.00;80.20;;;;;;5030873;28;20781;-76
2021/04/08 02:22:16;;;;;;;6.78;6.28;;;1.10;80.00;;;;;;5031436;28;20273;-76
2021/04/08 02:24:44;;;;;;;6.63;6.13;;;1.10;79.80;;;;;;5032171;28;20191;-76
2021/04/08 02:27:11;;;;;;;5.93;5.50;;;1.10;79.50;;;;;;5036510;28;20231;-76
2021/04/08 02:29:40;;;;;;;6.47;5.97;;;1.00;79.90;;;;;;5031568;28;20191;-75
2021/04/08 02:32:08;;;;;;;6.07;5.57;;;1.00;79.90;;;;;;5031041;28;20219;-76
2021/04/08 02:34:35;;;;;;;7.13;5.53;;;1.10;80.30;;;;;;5031980;28;20261;-76
2021/04/08 02:37:03;;;;;;;6.40;5.80;;;1.10;80.20;;;;;;5034578;28;20281;-76
2021/04/08 02:39:30;;;;;;;6.10;5.70;;;1.10;80.00;;;;;;5035151;28;20576;-75
2021/04/08 02:41:57;;;;;;;6.03;5.63;;;1.10;80.30;;;;;;5031279;28;20219;-76
2021/04/08 02:44:23;;;;;;;6.40;5.90;;;1.10;80.30;;;;;;5031959;28;20203;-75
2021/04/08 02:46:50;;;;;;;6.07;5.68;;;1.10;80.50;;;;;;5032733;28;20693;-75
2021/04/08 02:49:16;;;;;;;6.45;6.05;;;1.10;80.60;;;;;;5031942;28;20815;-74
2021/04/08 02:51:47;;;;;;;6.88;6.38;;;1.10;80.60;;;;;;5032013;28;21019;-76
2021/04/08 02:54:23;;;;;;;6.90;6.30;;;1.10;80.40;;;;;;5035704;28;20206;-76
2021/04/08 02:56:53;;;;;;;6.60;6.10;;;1.10;79.80;;;;;;5037882;28;20284;-75
2021/04/08 02:59:24;;;;;;;6.93;6.38;;;1.10;80.40;;;;;;5033864;28;20220;-76
2021/04/08 03:01:53;;;;;;;7.57;6.88;;;1.00;80.20;;;;;;5032233;28;20598;-76
2021/04/08 03:04:21;;;;;;;7.10;6.60;;;1.00;80.60;;;;;;5033882;28;20204;-76
2021/04/08 03:06:50;;;;;;;6.13;5.63;;;1.00;80.80;;;;;;5035590;28;20238;-76
2021/04/08 03:09:22;;;;;;;7.65;7.05;;;0.90;80.60;;;;;;5031938;28;20244;-76
2021/04/08 03:11:50;;;;;;;6.68;6.18;;;0.90;80.70;;;;;;5031764;28;20471;-76
2021/04/08 03:14:20;;;;;;;7.85;7.07;;;0.90;80.60;;;;;;5034617;28;20590;-74
2021/04/08 03:16:50;;;;;;;6.60;6.10;;;0.90;81.00;;;;;;5032909;28;20219;-74
2021/04/08 03:19:23;;;;;;;6.47;6.00;;;0.90;81.20;;;;;;5029923;28;20709;-76
2021/04/08 03:21:50;;;;;;;6.75;6.03;;;0.80;81.20;;;;;;5033440;28;20215;-73
2021/04/08 03:24:20;;;;;;;6.80;6.25;;;0.80;81.70;;;;;;5029674;28;20257;-75
2021/04/08 03:26:49;;;;;;;7.43;6.75;;;0.80;81.50;;;;;;5033142;28;20224;-76
2021/04/08 03:29:17;;;;;;;7.15;6.57;;;0.80;81.60;;;;;;5034290;28;20204;-76
2021/04/08 03:31:44;;;;;;;7.45;6.85;;;0.70;82.20;;;;;;5035937;28;20713;-76
2021/04/08 03:34:12;;;;;;;7.38;6.68;;;0.70;83.70;;;;;;5032752;28;20196;-76
2021/04/08 03:36:40;;;;;;;8.02;6.35;;;0.60;82.40;;;;;;5028441;28;20223;-76
2021/04/08 03:39:08;;;;;;;6.72;6.22;;;0.60;82.20;;;;;;5028845;28;20398;-75
2021/04/08 03:41:38;;;;;;;6.93;6.43;;;0.60;82.20;;;;;;5032770;28;20238;-76
2021/04/08 03:44:07;;;;;;;6.75;6.32;;;0.60;83.30;;;;;;5034120;28;20234;-75
2021/04/08 03:46:35;;;;;;;6.68;6.18;;;0.50;83.10;;;;;;5030636;28;20223;-76
2021/04/08 03:49:03;;;;;;;7.10;6.47;;;0.50;82.70;;;;;;5032258;28;20199;-76
2021/04/08 03:51:31;;;;;;;6.35;5.85;;;0.50;82.80;;;;;;5034830;28;20594;-76
2021/04/08 03:53:58;;;;;;;6.82;6.22;;;0.50;82.50;;;;;;5034727;28;20200;-76
2021/04/08 03:56:25;;;;;;;7.93;7.22;;;0.60;82.40;;;;;;5029943;28;20220;-76
2021/04/08 03:58:53;;;;;;;8.38;7.68;;;0.60;82.20;;;;;;5028345;28;20220;-76
2021/04/08 04:01:21;;;;;;;7.50;6.90;;;0.60;82.20;;;;;;5031534;28;20260;-76
2021/04/08 04:03:49;;;;;;;7.32;6.72;;;0.60;82.70;;;;;;5032339;28;20200;-75
2021/04/08 04:06:17;;;;;;;7.95;7.35;;;0.50;82.70;;;;;;5026265;28;20234;-75
2021/04/08 04:08:44;;;;;;;7.32;6.80;;;0.50;82.60;;;;;;5030086;28;20577;-76
2021/04/08 04:11:12;;;;;;;8.40;7.80;;;0.50;82.90;;;;;;5036106;28;20191;-74
2021/04/08 04:13:40;;;;;;;7.95;7.25;;;0.50;82.90;;;;;;5036963;28;20223;-74
2021/04/08 04:16:08;;;;;;;7.35;6.75;;;0.50;83.10;;;;;;5033812;28;20205;-74
2021/04/08 04:18:34;;;;;;;7.97;7.13;;;0.50;83.30;;;;;;5029253;28;20204;-75
2021/04/08 04:21:02;;;;;;;7.05;6.50;;;0.50;83.40;;;;;;5035355;28;20219;-75
2021/04/08 04:23:29;;;;;;;7.22;6.68;;;0.40;83.30;;;;;;5033440;28;20207;-76
2021/04/08 04:25:55;;;;;;;7.75;6.43;;;0.40;83.60;;;;;;5036930;28;20662;-76
2021/04/08 04:28:22;;;;;;;7.22;6.63;;;0.50;84.30;;;;;;5026681;28;20590;-75
2021/04/08 04:30:48;;;;;;;7.13;6.63;;;0.50;83.90;;;;;;5035977;28;20230;-76
2021/04/08 04:33:15;;;;;;;6.65;6.18;;;0.50;83.90;;;;;;5034441;28;20216;-76
2021/04/08 04:35:42;;;;;;;5.85;5.38;;;0.60;83.80;;;;;;5029181;28;20195;-75
2021/04/08 04:38:10;;;;;;;6.90;6.38;;;0.60;83.90;;;;;;5034317;28;20280;-76
2021/04/08 04:40:36;;;;;;;6.43;5.93;;;0.50;83.90;;;;;;5033391;28;20253;-76
2021/04/08 04:43:03;;;;;;;6.25;5.75;;;0.50;83.70;;;;;;5023385;28;20290;-75
2021/04/08 04:45:30;;;;;;;5.47;5.07;;;0.50;83.70;;;;;;5029790;28;20206;-76
2021/04/08 04:47:56;;;;;;;6.10;5.70;;;0.50;83.70;;;;;;5024841;28;20698;-76
2021/04/08 04:50:24;;;;;;;5.85;5.35;;;0.60;83.60;;;;;;5020898;28;20192;-76
2021/04/08 04:52:51;;;;;;;6.32;5.82;;;0.60;83.60;;;;;;5026438;28;20215;-76
2021/04/08 04:55:18;;;;;;;7.15;6.50;;;0.60;83.50;;;;;;5036001;28;20222;-75
2021/04/08 04:57:45;;;;;;;6.78;6.18;;;0.60;83.10;;;;;;5030180;28;20234;-75
2021/04/08 05:00:13;;;;;;;6.82;5.63;;;0.60;83.20;;;;;;5040289;28;20226;-75
2021/04/08 05:02:39;;;;;;;6.07;5.53;;;0.60;83.30;;;;;;5029493;28;20222;-76
2021/04/08 05:05:07;;;;;;;6.65;6.22;;;0.60;83.20;;;;;;5031698;28;20689;-76
2021/04/08 05:07:33;;;;;;;6.78;6.28;;;0.60;83.30;;;;;;5029352;28;20226;-75
2021/04/08 05:10:00;;;;;;;6.15;5.75;;;0.60;83.90;;;;;;5036538;28;20191;-76
2021/04/08 05:12:27;;;;;;;6.22;5.82;;;0.60;83.80;;;;;;5034943;28;20277;-76
2021/04/08 05:14:54;;;;;;;5.93;5.53;;;0.60;83.60;;;;;;5032526;28;20210;-76
2021/04/08 05:17:21;;;;;;;6.32;5.82;;;0.50;83.90;;;;;;5034436;28;20223;-75
2021/04/08 05:19:47;;;;;;;5.22;4.82;;;0.50;84.50;;;;;;5036173;28;20215;-75
2021/04/08 05:22:14;;;;;;;4.75;4.35;;;0.70;84.60;;;;;;5031433;28;20223;-75
2021/04/08 05:24:40;;;;;;;5.18;4.78;;;1.00;84.90;;;;;;5030821;28;20641;-77
2021/04/08 05:27:07;;;;;;;5.65;5.10;;;1.40;83.90;;;;;;5030900;28;20239;-75
2021/04/08 05:29:35;;;;;;;5.03;4.63;;;1.80;83.20;;;;;;5034734;28;20191;-75
2021/04/08 05:32:01;;;;;;;5.32;4.93;;;2.10;82.90;;;;;;5035867;28;20225;-76
2021/04/08 05:34:28;;;;;;;5.38;5.00;;;2.30;83.40;;;;;;5033656;28;20192;-75
2021/04/08 05:36:55;;;;;;;4.68;4.28;;;2.60;84.50;;;;;;5032549;28;20227;-76
2021/04/08 05:39:21;;;;;;;4.85;4.50;;;2.90;84.30;;;;;;5035750;28;20585;-76
2021/04/08 05:41:48;;;;;;;4.75;4.35;;;3.10;83.20;;;;;;5030481;28;20219;-76
2021/04/08 05:44:14;;;;;;;4.47;4.07;;;3.30;83.40;;;;;;5036355;28;20203;-76
2021/04/08 05:46:42;;;;;;;4.25;3.95;;;3.50;83.90;;;;;;5026639;28;20227;-76
2021/04/08 05:49:08;;;;;;;4.20;3.80;;;3.70;83.40;;;;;;5030485;28;20210;-76
2021/04/08 05:51:35;;;;;;;3.90;3.70;;;3.80;83.70;;;;;;5028253;28;20281;-76
2021/04/08 05:54:01;;;;;;;3.88;3.50;;;4.00;82.80;;;;;;5031754;28;20192;-76
2021/04/08 05:56:28;;;;;;;3.30;3.10;;;4.30;82.60;;;;;;5032923;28;20638;-76
2021/04/08 05:58:55;;;;;;;4.20;3.63;;;4.40;81.40;;;;;;5036168;28;20199;-76
2021/04/08 06:01:21;;;;;;;3.15;2.95;;;4.70;80.80;;;;;;5028721;28;20724;-76
2021/04/08 06:03:49;;;;;;;3.65;3.45;;;4.90;79.80;;;;;;5033037;28;20602;-76
2021/04/08 06:08:49;;;;;;;4.20;3.80;;;5.20;78.90;;;;;;5115267;22;20952;-67
2021/04/08 06:11:16;;;;;;;4.60;4.20;;;5.40;78.90;;;;;;5035846;28;20664;-68
2021/04/08 06:13:43;;;;;;;3.90;3.60;;;5.50;78.80;;;;;;5041294;28;20223;-67
2021/04/08 06:16:10;;;;;;;4.45;4.05;;;5.60;78.60;;;;;;5043577;28;20203;-67
2021/04/08 06:18:36;;;;;;;6.40;4.18;;;5.70;78.20;;;;;;5045349;28;20314;-67
2021/04/08 06:21:04;;;;;;;3.80;3.50;;;5.80;78.40;;;;;;5039265;28;20228;-67
2021/04/08 06:23:31;;;;;;;3.95;3.65;;;5.80;78.60;;;;;;5043675;28;20219;-67
2021/04/08 06:25:58;;;;;;;3.95;3.55;;;5.60;78.50;;;;;;5042354;28;20911;-67
2021/04/08 06:28:24;;;;;;;4.03;3.65;;;5.60;78.30;;;;;;5044202;28;20227;-67
2021/04/08 06:30:51;;;;;;;5.57;3.95;;;5.70;78.70;;;;;;5040953;28;20222;-67
2021/04/08 06:33:17;;;;;;;4.07;3.65;;;5.80;78.70;;;;;;5043901;28;20245;-67
2021/04/08 06:35:44;;;;;;;4.13;3.80;;;5.80;78.50;;;;;;5039213;28;20276;-67
2021/04/08 06:38:11;;;;;;;4.00;3.70;;;5.80;78.40;;;;;;5043632;28;20238;-67
2021/04/08 06:40:38;;;;;;;3.47;3.15;;;6.00;79.60;;;;;;5040682;28;20219;-67
2021/04/08 06:43:08;;;;;;;3.42;3.22;;;6.30;78.50;;;;;;5043064;28;20265;-67
2021/04/08 06:45:34;;;;;;;3.75;3.42;;;6.50;76.90;;;;;;5043094;28;20202;-67
2021/04/08 06:48:08;;;;;;;4.30;3.58;;;6.60;76.80;;;;;;5029261;28;20241;-67
2021/04/08 06:50:37;;;;;;;4.13;3.47;;;6.90;76.50;;;;;;5026842;28;20242;-68
2021/04/08 06:53:05;;;;;;;4.70;3.17;;;7.00;76.20;;;;;;5034607;28;20301;-67
2021/04/08 06:55:33;;;;;;;3.63;3.33;;;7.20;77.40;;;;;;5037888;28;20203;-67
2021/04/08 06:58:02;;;;;;;4.63;3.25;;;7.30;77.00;;;;;;5029483;28;20234;-67
2021/04/08 07:00:29;;;;;;;4.13;3.22;;;7.30;76.60;;;;;;5024725;28;20728;-67
2021/04/08 07:02:57;;;;;;;30.92;5.28;;;7.20;76.80;;;;;;5035253;28;20238;-67
2021/04/08 07:05:24;;;;;;;4.60;3.42;;;7.10;78.50;;;;;;5042094;28;20206;-68
2021/04/08 07:07:51;;;;;;;5.03;3.42;;;7.30;79.90;;;;;;5040566;28;20595;-68
2021/04/08 07:10:18;;;;;;;4.35;3.95;;;7.40;79.80;;;;;;5034881;28;20195;-68
2021/04/08 07:12:46;;;;;;;3.67;3.38;;;7.40;81.50;;;;;;5034115;28;20218;-68
2021/04/08 07:15:13;;;;;;;6.45;3.97;;;7.40;79.30;;;;;;5035773;28;20639;-69
2021/04/08 07:17:41;;;;;;;8.73;5.55;;;7.50;80.60;;;;;;5040518;28;20268;-69
2021/04/08 07:20:08;;;;;;;4.30;3.90;;;7.50;86.00;;;;;;5043646;28;20249;-69
2021/04/08 07:22:35;;;;;;;3.30;3.10;;;7.50;84.90;;;;;;5041328;28;20269;-69
2021/04/08 07:25:01;;;;;;;4.90;4.40;;;7.60;82.70;;;;;;5042160;28;20210;-69
2021/04/08 07:27:33;;;;;;;7.30;4.18;;;7.60;87.10;;;;;;5041027;28;20826;-69
2021/04/08 07:30:02;;;;;;;3.53;3.17;;;7.70;86.30;;;;;;5040534;28;20191;-69
2021/04/08 07:32:31;;;;;;;3.80;3.53;;;7.80;82.60;;;;;;5038893;28;20279;-70
2021/04/08 07:34:59;;;;;;;4.90;3.47;;;8.10;81.90;;;;;;5036754;28;20211;-70
2021/04/08 07:37:31;;;;;;;4.70;3.28;;;8.10;79.40;;;;;;5040938;28;21025;-71
2021/04/08 07:39:59;;;;;;;4.07;3.38;;;8.10;80.20;;;;;;5041539;28;20431;-70
2021/04/08 07:42:29;;;;;;;3.78;3.47;;;8.10;82.40;;;;;;5036574;28;20230;-70
2021/04/08 07:44:57;;;;;;;4.03;3.50;;;8.20;83.30;;;;;;5038643;28;20222;-70
2021/04/08 07:47:27;;;;;;;3.53;3.03;;;8.20;83.00;;;;;;5040103;28;20230;-71
2021/04/08 07:49:55;;;;;;;3.42;2.88;;;8.40;80.00;;;;;;5038747;28;20581;-72
2021/04/08 07:52:24;;;;;;;4.07;2.83;;;8.50;76.70;;;;;;5037730;28;20640;-70
2021/04/08 07:55:07;;;;;;;5.47;3.60;;;8.40;78.60;;;;;;5041015;28;20612;-71
2021/04/08 07:57:53;;;;;;;3.42;3.13;;;8.50;80.10;;;;;;5040466;28;20353;-71
2021/04/08 08:00:22;;;;;;;3.00;2.80;;;8.40;77.60;;;;;;5040609;28;20504;-71
2021/04/08 08:02:49;;;;;;;3.50;2.85;;;8.50;77.20;;;;;;5035658;28;20626;-69
2021/04/08 08:05:24;;;;;;;3.30;3.00;;;8.60;78.00;;;;;;5037361;28;20204;-71
2021/04/08 08:07:51;;;;;;;3.95;2.88;;;8.70;76.00;;;;;;5035820;28;20246;-69
2021/04/08 08:10:23;;;;;;;3.20;3.00;;;9.00;74.40;;;;;;5038171;28;20195;-69
2021/04/08 08:12:50;;;;;;;2.95;2.75;;;9.10;74.30;;;;;;5035177;28;20226;-71
2021/04/08 08:15:23;;;;;;;2.65;2.10;;;9.20;73.80;;;;;;5037851;28;20432;-69
2021/04/08 08:17:51;;;;;;;3.08;2.85;;;9.30;71.70;;;;;;5033550;28;20791;-70
2021/04/08 08:20:18;;;;;;;7.78;2.55;;;9.50;71.90;;;;;;5036577;28;20811;-69
2021/04/08 08:22:46;;;;;;;2.63;2.42;;;9.70;73.10;;;;;;5034741;28;20211;-70
2021/04/08 08:25:14;;;;;;;2.38;2.28;;;9.60;70.90;;;;;;5037917;28;20576;-69
2021/04/08 08:27:46;;;;;;;2.55;2.35;;;9.70;73.70;;;;;;5033224;28;20782;-70
2021/04/08 08:30:17;;;;;;;3.75;2.50;;;9.80;71.30;;;;;;5033815;28;20199;-69
2021/04/08 08:33:09;;;;;;;2.42;2.20;;;9.80;71.80;;;;;;5035865;28;20231;-69
2021/04/08 08:35:36;;;;;;;3.28;3.08;;;9.80;71.30;;;;;;5033628;28;20214;-70
2021/04/08 08:38:18;;;;;;;2.97;2.70;;;10.00;71.70;;;;;;5035306;28;20741;-69
2021/04/08 08:40:46;;;;;;;3.00;2.70;;;10.20;70.30;;;;;;5034513;28;20222;-69
2021/04/08 08:43:13;;;;;;;2.65;2.45;;;10.20;69.90;;;;;;5035006;28;20223;-70
2021/04/08 08:45:40;;;;;;;2.53;2.33;;;10.30;70.00;;;;;;5039374;28;20206;-68
2021/04/08 08:48:14;;;;;;;5.72;3.05;;;10.60;70.20;;;;;;5037906;28;20716;-70
2021/04/08 08:50:43;;;;;;;2.60;2.38;;;10.70;68.70;;;;;;5038180;28;20218;-72
2021/04/08 08:53:11;;;;;;;2.35;2.22;;;10.80;69.80;;;;;;5040635;28;20229;-69
2021/04/08 08:55:39;;;;;;;2.70;2.50;;;11.00;68.40;;;;;;5035661;28;20259;-68
2021/04/08 08:58:07;;;;;;;2.60;2.38;;;11.20;68.30;;;;;;5031833;28;20223;-69
2021/04/08 09:00:34;;;;;;;3.08;2.45;;;10.80;66.60;;;;;;5034396;28;20222;-69
2021/04/08 09:03:03;;;;;;;2.60;2.40;;;10.70;65.60;;;;;;5038550;28;20277;-69
2021/04/08 09:05:33;;;;;;;3.13;2.30;;;11.00;66.60;;;;;;5040000;28;20521;-69
2021/04/08 09:08:07;;;;;;;2.30;2.20;;;11.40;66.50;;;;;;5034745;28;20304;-69
2021/04/08 09:10:38;;;;;;;2.00;1.90;;;11.90;65.00;;;;;;5039262;28;20300;-70
2021/04/08 09:13:06;;;;;;;1.95;1.85;;;12.00;63.40;;;;;;5027030;28;20516;-70
2021/04/08 09:15:33;;;;;;;2.28;2.08;;;12.10;63.70;;;;;;5020696;28;20200;-69
2021/04/08 09:18:01;;;;;;;2.20;2.10;;;12.10;63.40;;;;;;5023072;28;20223;-69
2021/04/08 09:20:28;;;;;;;1.70;1.60;;;12.30;63.10;;;;;;5021689;28;20231;-72
2021/04/08 09:22:59;;;;;;;1.90;1.80;;;12.40;63.40;;;;;;5025322;28;20272;-72
2021/04/08 09:25:30;;;;;;;2.47;1.92;;;12.20;63.00;;;;;;5036336;28;20205;-70
2021/04/08 09:27:59;;;;;;;2.00;1.90;;;12.10;63.30;;;;;;5026076;28;20611;-70
2021/04/08 09:30:52;;;;;;;2.00;1.90;;;11.90;61.70;;;;;;5022141;28;20191;-69
2021/04/08 09:33:20;;;;;;;1.95;1.85;;;11.70;62.30;;;;;;5027079;28;20306;-72
2021/04/08 09:35:46;;;;;;;2.35;2.15;;;11.90;62.60;;;;;;5036699;28;20199;-69
2021/04/08 09:38:18;;;;;;;2.22;2.10;;;12.00;62.60;;;;;;5032324;28;20231;-70
2021/04/08 09:40:59;;;;;;;2.25;1.90;;;12.10;64.80;;;;;;5037520;28;20980;-69
2021/04/08 09:43:26;;;;;;;2.20;2.05;;;12.00;65.50;;;;;;5036599;28;20222;-70
2021/04/08 09:45:58;;;;;;;2.30;2.10;;;12.00;65.00;;;;;;5034871;28;20199;-69
2021/04/08 09:48:26;;;;;;;2.22;2.03;;;12.10;66.00;;;;;;5038311;28;20939;-70
2021/04/08 09:50:54;;;;;;;3.20;2.60;;;12.20;67.60;;;;;;5039893;28;20254;-69
2021/04/08 09:53:24;;;;;;;2.05;1.95;;;12.20;66.90;;;;;;5030296;28;20629;-70
2021/04/08 09:55:53;;;;;;;1.85;1.75;;;12.30;66.20;;;;;;5021072;28;20192;-69
2021/04/08 09:58:22;;;;;;;2.67;2.10;;;12.20;66.10;;;;;;5030564;28;20223;-69
2021/04/08 10:00:51;;;;;;;2.30;2.10;;;12.20;65.50;;;;;;5039518;28;20215;-69
2021/04/08 10:03:28;;;;;;;3.15;1.90;;;12.10;66.70;;;;;;5029679;28;20223;-70
2021/04/08 10:05:55;;;;;;;1.70;1.60;;;12.20;66.70;;;;;;5019088;28;20210;-70
2021/04/08 10:08:24;;;;;;;2.17;2.08;;;12.30;66.80;;;;;;5027370;28;20396;-73
2021/04/08 10:10:51;;;;;;;2.10;2.00;;;12.40;66.30;;;;;;5036598;28;20371;-72
2021/04/08 10:13:20;;;;;;;1.90;1.80;;;12.50;66.40;;;;;;5029882;28;20236;-70
2021/04/08 10:15:48;;;;;;;2.55;2.35;;;12.70;66.00;;;;;;5017145;28;20199;-69
2021/04/08 10:18:19;;;;;;;1.77;1.67;;;12.60;66.20;;;;;;5025495;28;20219;-69
2021/04/08 10:20:48;;;;;;;2.22;2.13;;;12.80;67.30;;;;;;5041320;28;20230;-69
2021/04/08 10:23:28;;;;;;;1.90;1.80;;;12.90;66.60;;;;;;5031039;28;20648;-69
2021/04/08 10:25:57;;;;;;;2.20;2.00;;;13.00;65.50;;;;;;5019191;28;20574;-69
2021/04/08 10:28:24;;;;;;;1.80;1.70;;;13.20;65.10;;;;;;5018302;28;20234;-69
2021/04/08 10:30:50;;;;;;;2.00;1.88;;;13.20;65.40;;;;;;5015492;28;20750;-70
2021/04/08 10:33:19;;;;;;;1.92;1.83;;;13.40;65.80;;;;;;5025610;28;20218;-69
2021/04/08 10:35:46;;;;;;;2.22;1.80;;;13.60;65.50;;;;;;5038307;28;20214;-71
2021/04/08 10:38:13;;;;;;;2.30;1.70;;;13.60;65.20;;;;;;5029107;28;20231;-69
2021/04/08 10:40:49;;;;;;;2.13;1.92;;;13.70;64.50;;;;;;5017720;28;20220;-69
2021/04/08 10:43:18;;;;;;;2.72;1.67;;;13.60;64.20;;;;;;5028582;28;20638;-70
2021/04/08 10:45:53;;;;;;;1.92;1.83;;;13.80;63.20;;;;;;5035458;28;20199;-69
2021/04/08 10:48:20;;;;;;;3.08;1.85;;;13.80;62.50;;;;;;5036363;28;20226;-69
2021/04/08 10:50:47;;;;;;;2.63;1.60;;;14.00;62.90;;;;;;5039203;28;20199;-69
2021/04/08 10:53:18;;;;;;;1.83;1.73;;;14.10;62.40;;;;;;5035269;28;20299;-69
2021/04/08 10:55:45;;;;;;;1.92;1.73;;;14.20;60.90;;;;;;5038521;28;20931;-69
2021/04/08 10:58:24;;;;;;;1.50;1.40;;;14.10;60.20;;;;;;5040266;28;20222;-69
2021/04/08 11:00:51;;;;;;;1.27;1.23;;;14.00;56.90;;;;;;5040010;28;20211;-71
2021/04/08 11:03:17;;;;;;;1.88;1.58;;;14.00;55.40;;;;;;5034422;28;20710;-69
2021/04/08 11:05:44;;;;;;;1.90;1.77;;;13.90;55.60;;;;;;5022924;28;20195;-69
2021/04/08 11:08:12;;;;;;;2.20;1.50;;;14.00;55.30;;;;;;5023812;28;20243;-69
2021/04/08 11:10:39;;;;;;;2.05;1.60;;;14.20;57.30;;;;;;5019818;28;20192;-69
2021/04/08 11:13:06;;;;;;;1.48;1.38;;;14.60;56.90;;;;;;5030391;28;20219;-69
2021/04/08 11:15:35;;;;;;;1.80;1.70;;;14.60;55.90;;;;;;5040879;28;20252;-69
2021/04/08 11:18:06;;;;;;;1.67;1.33;;;14.60;55.80;;;;;;5035682;28;20223;-69
2021/04/08 11:20:35;;;;;;;2.35;1.90;;;14.90;55.60;;;;;;5024141;28;20273;-68
2021/04/08 11:23:02;;;;;;;1.45;1.35;;;15.00;54.70;;;;;;5024573;28;20229;-69
2021/04/08 11:25:30;;;;;;;1.70;1.60;;;14.90;54.00;;;;;;5038082;28;20241;-69
2021/04/08 11:27:59;;;;;;;1.67;1.58;;;14.80;54.10;;;;;;5039356;28;20231;-70
2021/04/08 11:30:28;;;;;;;1.70;1.60;;;14.50;53.60;;;;;;5038635;28;20207;-69
2021/04/08 11:32:57;;;;;;;1.38;1.30;;;14.50;54.60;;;;;;5035265;28;20701;-69
2021/04/08 11:35:32;;;;;;;1.73;1.50;;;14.50;53.60;;;;;;5041353;28;20191;-69
2021/04/08 11:38:14;;;;;;;1.52;1.42;;;14.60;52.50;;;;;;5034600;28;20223;-69
2021/04/08 11:40:43;;;;;;;1.40;1.30;;;14.50;53.40;;;;;;5035810;28;20223;-69
2021/04/08 11:43:27;;;;;;;1.63;1.52;;;14.50;54.50;;;;;;5041069;28;20225;-69
2021/04/08 11:45:55;;;;;;;1.70;1.60;;;14.60;54.00;;;;;;5041838;28;20655;-69
2021/04/08 11:48:23;;;;;;;1.50;1.40;;;14.50;54.40;;;;;;5041734;28;20230;-68
2021/04/08 11:50:51;;;;;;;1.48;1.38;;;14.70;54.80;;;;;;5044949;28;20198;-68
2021/04/08 11:53:19;;;;;;;1.67;1.58;;;14.90;53.90;;;;;;5042826;28;20218;-68
2021/04/08 11:55:47;;;;;;;1.40;1.30;;;15.00;53.70;;;;;;5037981;28;20293;-69
2021/04/08 11:58:25;;;;;;;1.30;1.20;;;15.00;52.40;;;;;;5034980;28;20614;-69
2021/04/08 12:00:52;;;;;;;2.90;1.58;;;15.00;53.10;;;;;;5039993;28;20267;-69
2021/04/08 12:03:21;;;;;;;1.60;1.50;;;15.30;53.40;;;;;;5036196;28;20437;-70
2021/04/08 12:05:49;;;;;;;1.60;1.48;;;15.60;54.00;;;;;;5038547;28;20325;-69
2021/04/08 12:08:15;;;;;;;1.52;1.42;;;15.50;53.20;;;;;;5051563;22;20713;-74
2021/04/08 12:10:42;;;;;;;1.50;1.40;;;15.40;52.80;;;;;;5036578;28;20696;-73
2021/04/08 12:13:10;;;;;;;1.50;1.40;;;15.20;52.60;;;;;;5033742;28;20223;-74
2021/04/08 12:15:42;;;;;;;1.40;1.30;;;15.10;52.80;;;;;;5040807;28;20199;-74
2021/04/08 12:18:29;;;;;;;1.60;1.50;;;15.30;53.40;;;;;;5038533;28;20235;-74
2021/04/08 12:20:57;;;;;;;1.48;1.38;;;15.20;51.00;;;;;;5035361;28;20218;-73
2021/04/08 12:23:25;;;;;;;1.50;1.40;;;15.20;52.20;;;;;;5035269;28;20214;-73
2021/04/08 12:25:54;;;;;;;1.58;1.33;;;15.40;52.00;;;;;;5041401;28;20218;-71
2021/04/08 12:28:22;;;;;;;1.63;1.52;;;15.70;52.90;;;;;;5034643;28;20222;-74
2021/04/08 12:31:00;;;;;;;1.63;1.40;;;15.70;51.30;;;;;;5041375;28;20198;-73
2021/04/08 12:33:29;;;;;;;1.30;1.15;;;15.60;51.20;;;;;;5037010;28;20337;-73
2021/04/08 12:35:57;;;;;;;1.40;1.30;;;15.60;51.40;;;;;;5043168;28;20222;-73
2021/04/08 12:38:24;;;;;;;1.33;1.27;;;15.70;51.20;;;;;;5038046;28;20237;-70
2021/04/08 12:40:52;;;;;;;1.13;1.13;;;16.00;51.70;;;;;;5040626;28;20215;-73
2021/04/08 12:43:19;;;;;;;1.40;1.30;;;16.20;50.50;;;;;;5039165;28;20223;-73
2021/04/08 12:45:46;;;;;;;1.45;1.33;;;16.10;50.30;;;;;;5036949;28;20215;-73
2021/04/08 12:48:13;;;;;;;1.58;1.48;;;15.90;50.50;;;;;;5040022;28;20253;-70
2021/04/08 12:50:41;;;;;;;1.30;1.20;;;15.90;50.60;;;;;;5038104;28;20221;-73
2021/04/08 12:53:10;;;;;;;1.75;1.27;;;16.10;50.80;;;;;;5035571;28;20223;-72
2021/04/08 12:55:37;;;;;;;1.10;1.10;;;16.40;50.60;;;;;;5040777;28;20195;-73
2021/04/08 12:58:04;;;;;;;1.40;1.27;;;16.50;50.40;;;;;;5041119;28;20592;-74
2021/04/08 13:00:31;;;;;;;1.40;1.30;;;16.50;50.50;;;;;;5033321;28;20254;-74
2021/04/08 13:02:58;;;;;;;1.50;1.15;;;16.30;50.00;;;;;;5036637;28;20205;-73
2021/04/08 13:05:25;;;;;;;1.83;1.70;;;16.20;49.30;;;;;;5038007;28;20199;-73